Time;durP1;ratioP1;P1;durP2;ratioP2;P2;SDS_P1;SDS_P2;PMS_P1;PMS_P2;Temp;Humidity;BMP_temperature;BMP_pressure;BME280_temperature;BME280_humidity;BME280_pressure;Samples;Min_cycle;Max_cycle;Signal;HPM_P1;HPM_P2
2022/04/04 00:01:34;;;;;;;6.03;2.00;;;3.70;99.90;;;;;;5084848;27;20208;-44
2022/04/04 00:04:01;;;;;;;2.70;1.70;;;3.80;99.90;;;;;;5073847;28;20259;-44
2022/04/04 00:06:30;;;;;;;2.73;1.67;;;3.70;99.90;;;;;;5084796;28;20481;-44
2022/04/04 00:08:57;;;;;;;3.03;1.90;;;3.70;99.90;;;;;;5093688;27;20207;-44
2022/04/04 00:11:24;;;;;;;4.47;1.80;;;3.70;99.90;;;;;;5088276;27;20463;-44
2022/04/04 00:13:51;;;;;;;1.87;1.67;;;3.70;99.90;;;;;;5097003;28;20662;-43
2022/04/04 00:16:17;;;;;;;2.23;1.77;;;3.70;99.90;;;;;;5079156;27;20252;-44
2022/04/04 00:18:45;;;;;;;2.90;1.70;;;3.70;99.90;;;;;;5085015;27;20306;-45
2022/04/04 00:21:12;;;;;;;3.90;1.97;;;3.70;99.90;;;;;;5069755;27;20206;-44
2022/04/04 00:23:40;;;;;;;5.83;2.20;;;3.70;99.90;;;;;;5085844;27;20247;-44
2022/04/04 00:26:07;;;;;;;3.50;1.70;;;3.70;99.90;;;;;;5081250;28;20552;-45
2022/04/04 00:28:34;;;;;;;2.37;1.73;;;3.70;99.90;;;;;;5096876;28;20203;-43
2022/04/04 00:31:00;;;;;;;3.33;2.10;;;3.70;99.90;;;;;;5081121;27;20305;-42
2022/04/04 00:33:27;;;;;;;2.00;1.80;;;3.70;99.90;;;;;;5079973;27;20257;-43
2022/04/04 00:35:55;;;;;;;1.97;1.77;;;3.70;99.90;;;;;;5081968;28;20232;-42
2022/04/04 00:38:23;;;;;;;3.53;2.20;;;3.70;99.90;;;;;;5073684;27;22103;-43
2022/04/04 00:40:50;;;;;;;2.47;1.90;;;3.70;99.90;;;;;;5069802;27;20731;-43
2022/04/04 00:43:17;;;;;;;4.73;2.57;;;3.80;99.90;;;;;;5094762;27;20296;-44
2022/04/04 00:45:45;;;;;;;2.80;1.90;;;3.80;99.90;;;;;;5082113;27;20210;-43
2022/04/04 00:48:12;;;;;;;2.20;1.80;;;3.80;99.90;;;;;;5086049;28;20209;-44
2022/04/04 00:50:39;;;;;;;5.77;1.90;;;3.70;99.90;;;;;;5073987;27;20702;-45
2022/04/04 00:53:11;;;;;;;3.30;1.97;;;3.70;99.90;;;;;;5086656;28;20295;-44
2022/04/04 00:55:38;;;;;;;3.50;1.90;;;3.70;99.90;;;;;;5079118;27;20453;-44
2022/04/04 00:58:06;;;;;;;2.07;1.70;;;3.70;99.90;;;;;;5097688;28;20238;-43
2022/04/04 01:00:33;;;;;;;4.07;1.80;;;3.60;99.90;;;;;;5087008;27;20536;-44
2022/04/04 01:03:00;;;;;;;2.30;2.07;;;3.60;99.90;;;;;;5082646;27;20194;-44
2022/04/04 01:05:27;;;;;;;2.27;2.00;;;3.60;99.90;;;;;;5087488;27;20204;-44
2022/04/04 01:07:54;;;;;;;5.07;2.10;;;3.70;99.90;;;;;;5079764;28;20281;-44
2022/04/04 01:10:22;;;;;;;3.53;1.83;;;3.60;99.90;;;;;;5085209;28;20281;-43
2022/04/04 01:12:54;;;;;;;5.03;2.20;;;3.60;99.90;;;;;;5068103;28;20223;-44
2022/04/04 01:15:23;;;;;;;4.73;1.90;;;3.50;99.90;;;;;;5096665;28;20288;-44
2022/04/04 01:17:50;;;;;;;3.00;2.33;;;3.50;99.90;;;;;;5076046;27;20213;-44
2022/04/04 01:20:18;;;;;;;2.60;1.90;;;3.50;99.90;;;;;;5084861;27;20277;-44
2022/04/04 01:22:49;;;;;;;5.20;2.00;;;3.50;99.90;;;;;;5068810;27;20729;-44
2022/04/04 01:25:23;;;;;;;2.87;2.10;;;3.50;99.90;;;;;;5086018;28;20229;-44
2022/04/04 01:27:50;;;;;;;2.33;1.80;;;3.50;99.90;;;;;;5082263;28;20440;-42
2022/04/04 01:30:17;;;;;;;2.83;2.07;;;3.50;99.90;;;;;;5094643;27;20206;-44
2022/04/04 01:32:44;;;;;;;3.83;1.97;;;3.50;99.90;;;;;;5079470;27;20199;-44
2022/04/04 01:35:11;;;;;;;4.73;2.07;;;3.60;99.90;;;;;;5086165;28;20231;-44
2022/04/04 01:37:38;;;;;;;3.20;1.93;;;3.60;99.90;;;;;;5065246;28;20255;-43
2022/04/04 01:40:07;;;;;;;6.80;1.90;;;3.50;99.90;;;;;;5083490;27;20280;-43
2022/04/04 01:42:35;;;;;;;3.37;2.00;;;3.60;99.90;;;;;;5097557;27;20213;-43
2022/04/04 01:45:02;;;;;;;4.53;2.17;;;3.60;99.90;;;;;;5085245;27;20214;-44
2022/04/04 01:47:29;;;;;;;2.97;1.93;;;3.60;99.90;;;;;;5084899;27;20236;-43
2022/04/04 01:49:56;;;;;;;3.07;2.30;;;3.60;99.90;;;;;;5081172;27;20463;-44
2022/04/04 01:52:23;;;;;;;2.20;1.90;;;3.60;99.90;;;;;;5077719;27;20420;-43
2022/04/04 01:54:50;;;;;;;2.97;2.20;;;3.60;99.90;;;;;;5070691;28;20222;-45
2022/04/04 01:57:17;;;;;;;3.53;2.00;;;3.60;99.90;;;;;;5088902;28;20210;-44
2022/04/04 01:59:45;;;;;;;3.03;2.20;;;3.60;99.90;;;;;;5082977;28;20234;-44
2022/04/04 02:02:12;;;;;;;3.50;2.17;;;3.70;99.90;;;;;;5090322;28;20203;-44
2022/04/04 02:04:39;;;;;;;5.90;2.30;;;3.70;99.90;;;;;;5069517;28;20570;-44
2022/04/04 02:07:06;;;;;;;2.60;2.30;;;3.70;99.90;;;;;;5088783;28;20211;-45
2022/04/04 02:09:33;;;;;;;5.60;2.37;;;3.70;99.90;;;;;;5059453;28;20224;-45
2022/04/04 02:12:00;;;;;;;7.87;2.53;;;3.70;99.90;;;;;;5086478;28;20525;-44
2022/04/04 02:14:27;;;;;;;2.47;2.00;;;3.70;99.90;;;;;;5077194;28;20408;-44
2022/04/04 02:16:55;;;;;;;3.07;2.20;;;3.70;99.90;;;;;;5093668;28;20206;-44
2022/04/04 02:19:22;;;;;;;3.10;2.43;;;3.70;99.90;;;;;;5080299;28;20203;-44
2022/04/04 02:21:49;;;;;;;4.63;2.60;;;3.70;99.90;;;;;;5083688;28;20285;-44
2022/04/04 02:24:16;;;;;;;5.17;2.60;;;3.70;99.90;;;;;;5069469;28;20249;-45
2022/04/04 02:26:43;;;;;;;3.50;2.57;;;3.70;99.90;;;;;;5079651;28;20724;-44
2022/04/04 02:29:10;;;;;;;2.83;2.30;;;3.70;99.90;;;;;;5091311;28;20206;-45
2022/04/04 02:31:36;;;;;;;4.67;3.33;;;3.70;99.90;;;;;;5083030;28;20202;-44
2022/04/04 02:34:05;;;;;;;3.63;2.60;;;3.70;99.90;;;;;;5084174;28;20223;-44
2022/04/04 02:36:31;;;;;;;3.00;2.70;;;3.70;99.90;;;;;;5081421;27;20301;-44
2022/04/04 02:38:58;;;;;;;2.53;2.20;;;3.70;99.90;;;;;;5082819;27;20216;-44
2022/04/04 02:41:25;;;;;;;4.27;2.97;;;3.70;99.90;;;;;;5068898;28;21093;-44
2022/04/04 02:43:52;;;;;;;5.60;2.43;;;3.60;99.90;;;;;;5078248;28;20218;-45
2022/04/04 02:46:19;;;;;;;4.83;2.40;;;3.60;99.90;;;;;;5075305;28;20513;-45
2022/04/04 02:48:46;;;;;;;5.77;2.70;;;3.70;99.90;;;;;;5081530;28;20214;-45
2022/04/04 02:51:14;;;;;;;4.03;2.60;;;3.70;99.90;;;;;;5078768;28;20411;-44
2022/04/04 02:53:41;;;;;;;4.73;3.03;;;3.70;99.90;;;;;;5077123;28;20227;-45
2022/04/04 02:58:52;;;;;;;5.20;2.43;;;3.70;99.90;;;;;;5084903;28;20263;-45
2022/04/04 03:01:20;;;;;;;3.30;2.70;;;3.80;99.90;;;;;;5075388;28;20200;-44
2022/04/04 03:03:47;;;;;;;7.17;3.00;;;3.80;99.90;;;;;;5076089;28;20268;-44
2022/04/04 03:06:15;;;;;;;2.90;2.43;;;3.70;99.90;;;;;;5081011;28;20211;-44
2022/04/04 03:08:42;;;;;;;2.93;2.63;;;3.80;99.90;;;;;;5086571;28;20221;-43
2022/04/04 03:11:09;;;;;;;5.43;2.67;;;3.80;99.90;;;;;;5066938;28;20294;-43
2022/04/04 03:13:36;;;;;;;5.20;2.30;;;3.80;99.90;;;;;;5084240;28;20556;-44
2022/04/04 03:16:03;;;;;;;4.27;2.67;;;3.80;99.90;;;;;;5082719;28;20207;-43
2022/04/04 03:18:30;;;;;;;6.23;3.33;;;3.80;99.90;;;;;;5079764;28;20275;-44
2022/04/04 03:20:57;;;;;;;4.83;3.43;;;3.80;99.90;;;;;;5067667;28;20537;-43
2022/04/04 03:23:27;;;;;;;5.13;2.60;;;3.80;99.90;;;;;;5089328;28;20232;-44
2022/04/04 03:25:54;;;;;;;3.90;2.83;;;3.90;99.90;;;;;;5076005;28;20377;-44
2022/04/04 03:28:21;;;;;;;5.83;3.37;;;3.90;99.90;;;;;;5073317;27;20443;-43
2022/04/04 03:30:49;;;;;;;4.03;3.53;;;3.80;99.90;;;;;;5085456;28;20217;-44
2022/04/04 03:33:16;;;;;;;6.03;3.80;;;3.90;99.90;;;;;;5072300;28;20215;-43
2022/04/04 03:35:43;;;;;;;6.17;3.80;;;3.90;99.90;;;;;;5083244;27;20803;-45
2022/04/04 03:38:12;;;;;;;6.87;4.10;;;3.90;99.90;;;;;;5081485;28;20407;-44
2022/04/04 03:40:41;;;;;;;8.87;4.03;;;3.90;99.90;;;;;;5064492;28;20460;-44
2022/04/04 03:43:08;;;;;;;7.57;4.67;;;3.90;99.90;;;;;;5085970;27;20209;-42
2022/04/04 03:45:35;;;;;;;7.93;4.40;;;3.90;99.90;;;;;;5077075;27;20207;-47
2022/04/04 03:48:02;;;;;;;5.87;4.43;;;3.90;99.90;;;;;;5086846;27;20212;-42
2022/04/04 03:50:30;;;;;;;7.23;4.83;;;3.90;99.90;;;;;;5087265;28;20215;-49
2022/04/04 03:52:58;;;;;;;9.07;4.60;;;3.90;99.90;;;;;;5082653;27;20556;-44
2022/04/04 03:55:27;;;;;;;5.77;4.83;;;4.00;99.90;;;;;;5098238;28;20300;-45
2022/04/04 03:57:56;;;;;;;9.63;4.70;;;4.00;99.90;;;;;;5063658;27;20494;-44
2022/04/04 04:00:24;;;;;;;8.10;4.80;;;4.00;99.90;;;;;;5080246;28;20305;-45
2022/04/04 04:02:51;;;;;;;6.17;4.40;;;4.00;99.90;;;;;;5076203;27;20202;-44
2022/04/04 04:05:18;;;;;;;7.00;4.37;;;3.90;99.90;;;;;;5091333;28;20223;-43
2022/04/04 04:07:45;;;;;;;12.93;5.47;;;4.00;99.90;;;;;;5063410;27;20207;-42
2022/04/04 04:10:13;;;;;;;8.33;5.07;;;4.00;99.90;;;;;;5090109;28;20282;-43
2022/04/04 04:12:40;;;;;;;5.70;4.53;;;4.00;99.90;;;;;;5065734;27;20207;-42
2022/04/04 04:15:11;;;;;;;6.73;5.20;;;4.00;99.90;;;;;;5073625;28;20222;-44
2022/04/04 04:17:38;;;;;;;7.57;5.07;;;4.00;99.90;;;;;;5091696;27;20277;-48
2022/04/04 04:20:23;;;;;;;7.63;5.60;;;4.00;99.90;;;;;;5082859;27;20898;-45
2022/04/04 04:22:54;;;;;;;5.80;5.03;;;4.00;99.90;;;;;;5072534;27;20224;-44
2022/04/04 04:25:22;;;;;;;9.03;5.90;;;4.00;99.90;;;;;;5084583;27;20230;-44
2022/04/04 04:27:49;;;;;;;11.37;5.57;;;4.00;99.90;;;;;;5075573;27;20205;-43
2022/04/04 04:30:17;;;;;;;8.93;5.80;;;4.00;99.90;;;;;;5070376;27;20281;-42
2022/04/04 04:32:48;;;;;;;9.60;6.13;;;4.00;99.90;;;;;;5093426;28;20510;-47
2022/04/04 04:35:16;;;;;;;8.33;5.97;;;4.10;99.90;;;;;;5082847;28;20230;-46
2022/04/04 04:37:45;;;;;;;9.50;6.63;;;4.10;99.90;;;;;;5088398;28;20231;-48
2022/04/04 04:40:14;;;;;;;11.67;7.30;;;4.10;99.90;;;;;;5066450;27;20276;-44
2022/04/04 04:42:43;;;;;;;10.50;6.70;;;4.10;99.90;;;;;;5093577;27;20405;-42
2022/04/04 04:45:11;;;;;;;8.03;6.27;;;4.10;99.90;;;;;;5054871;27;20562;-44
2022/04/04 04:47:39;;;;;;;7.60;6.33;;;4.10;99.90;;;;;;5069152;27;20242;-43
2022/04/04 04:50:07;;;;;;;8.27;6.00;;;4.20;99.90;;;;;;5072050;27;20203;-43
2022/04/04 04:52:35;;;;;;;9.13;6.27;;;4.20;99.90;;;;;;5090960;27;20426;-43
2022/04/04 04:55:03;;;;;;;11.13;5.80;;;4.10;99.90;;;;;;5078898;27;20443;-45
2022/04/04 04:57:30;;;;;;;7.67;5.10;;;4.10;99.90;;;;;;5098521;27;20438;-43
2022/04/04 04:59:56;;;;;;;8.83;6.00;;;4.10;99.90;;;;;;5061565;27;20326;-44
2022/04/04 05:02:23;;;;;;;7.47;6.20;;;4.10;99.90;;;;;;5084366;27;20447;-44
2022/04/04 05:04:52;;;;;;;10.07;6.53;;;4.10;99.90;;;;;;5097439;28;20221;-43
2022/04/04 05:07:19;;;;;;;11.50;7.00;;;4.20;99.90;;;;;;5094476;27;20213;-43
2022/04/04 05:09:46;;;;;;;10.20;6.30;;;4.20;99.90;;;;;;5073447;27;20215;-44
2022/04/04 05:12:13;;;;;;;9.03;6.83;;;4.20;99.90;;;;;;5094891;27;20237;-45
2022/04/04 05:14:41;;;;;;;7.90;6.57;;;4.20;99.90;;;;;;5072004;28;20742;-43
2022/04/04 05:17:07;;;;;;;10.50;6.40;;;4.20;99.90;;;;;;5077206;28;20621;-44
2022/04/04 05:19:34;;;;;;;11.80;6.23;;;4.20;99.90;;;;;;5085545;28;20281;-43
2022/04/04 05:22:03;;;;;;;12.80;7.87;;;4.20;99.90;;;;;;5095177;27;20219;-45
2022/04/04 05:24:30;;;;;;;9.33;7.77;;;4.20;99.90;;;;;;5086342;28;20217;-44
2022/04/04 05:26:57;;;;;;;9.37;7.93;;;4.30;99.90;;;;;;5083553;28;20660;-44
2022/04/04 05:29:26;;;;;;;11.97;8.10;;;4.30;99.90;;;;;;5083489;27;20218;-45
2022/04/04 05:31:55;;;;;;;9.60;7.10;;;4.30;99.90;;;;;;5067190;27;20221;-45
2022/04/04 05:34:22;;;;;;;11.57;7.47;;;4.30;99.90;;;;;;5086633;27;20235;-45
2022/04/04 05:36:49;;;;;;;10.03;7.40;;;4.30;99.90;;;;;;5085305;27;20205;-45
2022/04/04 05:39:17;;;;;;;11.53;7.87;;;4.20;99.90;;;;;;5078792;28;20210;-45
2022/04/04 05:41:44;;;;;;;13.63;9.63;;;4.30;99.90;;;;;;5072429;27;20211;-46
2022/04/04 05:44:11;;;;;;;13.20;8.97;;;4.30;99.90;;;;;;5080127;27;20240;-45
2022/04/04 05:46:38;;;;;;;15.60;8.40;;;4.30;99.90;;;;;;5088615;27;20242;-46
2022/04/04 05:49:05;;;;;;;12.67;8.40;;;4.30;99.90;;;;;;5085245;28;20264;-44
2022/04/04 05:51:33;;;;;;;14.90;9.37;;;4.30;99.90;;;;;;5090985;27;20231;-44
2022/04/04 05:54:01;;;;;;;12.13;9.03;;;4.30;99.90;;;;;;5082591;28;20230;-43
2022/04/04 05:56:29;;;;;;;11.37;7.77;;;4.40;99.90;;;;;;5076201;27;20269;-45
2022/04/04 05:58:56;;;;;;;11.83;8.67;;;4.40;99.90;;;;;;5086529;27;20210;-43
2022/04/04 06:01:22;;;;;;;11.83;8.20;;;4.40;99.90;;;;;;5093267;27;20213;-45
2022/04/04 06:03:50;;;;;;;12.33;9.10;;;4.30;99.90;;;;;;5060590;27;20505;-44
2022/04/04 06:06:17;;;;;;;12.53;8.37;;;4.30;99.90;;;;;;5084273;27;20208;-44
2022/04/04 06:08:44;;;;;;;18.30;10.23;;;4.40;99.90;;;;;;5085088;27;20621;-43
2022/04/04 06:11:11;;;;;;;13.87;8.97;;;4.40;99.90;;;;;;5074240;27;20285;-44
2022/04/04 06:13:40;;;;;;;15.70;8.47;;;4.40;99.90;;;;;;5082661;27;20261;-45
2022/04/04 06:16:08;;;;;;;11.40;8.20;;;4.30;99.90;;;;;;5094326;27;20221;-45
2022/04/04 06:18:35;;;;;;;13.37;9.07;;;4.30;99.90;;;;;;5081160;27;20539;-43
2022/04/04 06:21:03;;;;;;;13.50;8.87;;;4.30;99.90;;;;;;5102338;27;20492;-44
2022/04/04 06:23:33;;;;;;;11.13;8.80;;;4.30;99.90;;;;;;5090867;27;20219;-43
2022/04/04 06:26:01;;;;;;;10.90;8.30;;;4.30;99.90;;;;;;5090063;27;20273;-44
2022/04/04 06:28:31;;;;;;;12.87;9.03;;;4.30;99.90;;;;;;5083581;28;20217;-43
2022/04/04 06:31:00;;;;;;;14.77;9.67;;;4.30;99.90;;;;;;5083204;27;20545;-45
2022/04/04 06:33:27;;;;;;;12.53;8.93;;;4.30;99.90;;;;;;5064930;28;20558;-45
2022/04/04 06:35:55;;;;;;;13.33;9.47;;;4.30;99.90;;;;;;5075992;27;20221;-45
2022/04/04 06:38:22;;;;;;;13.90;10.83;;;4.30;99.90;;;;;;5099588;28;20308;-45
2022/04/04 06:40:49;;;;;;;12.17;9.33;;;4.30;99.90;;;;;;5074479;27;20210;-43
2022/04/04 06:43:18;;;;;;;15.10;8.60;;;4.40;99.90;;;;;;5079298;28;20217;-45
2022/04/04 06:45:45;;;;;;;11.73;8.00;;;4.40;99.90;;;;;;5082290;28;20191;-43
2022/04/04 06:48:14;;;;;;;9.30;7.83;;;4.40;99.90;;;;;;5073122;28;20702;-45
2022/04/04 06:50:40;;;;;;;10.80;8.10;;;4.40;99.90;;;;;;5092659;28;20199;-44
2022/04/04 06:53:08;;;;;;;11.47;8.00;;;4.40;99.90;;;;;;5092986;28;21123;-43
2022/04/04 06:55:34;;;;;;;10.93;7.97;;;4.40;99.90;;;;;;5084226;28;20225;-49
2022/04/04 06:58:01;;;;;;;13.10;7.83;;;4.30;99.90;;;;;;5081820;28;20521;-45
2022/04/04 07:00:28;;;;;;;13.33;9.00;;;4.30;99.90;;;;;;5076665;28;20209;-45
2022/04/04 07:02:56;;;;;;;11.97;7.87;;;4.40;99.90;;;;;;5050982;28;20214;-46
2022/04/04 07:05:24;;;;;;;10.83;8.27;;;4.40;99.90;;;;;;5087908;28;20223;-43
2022/04/04 07:07:51;;;;;;;12.73;7.77;;;4.40;99.90;;;;;;5086867;28;20384;-47
2022/04/04 07:10:18;;;;;;;10.87;7.37;;;4.40;99.90;;;;;;5090508;28;20467;-44
2022/04/04 07:12:45;;;;;;;9.80;7.73;;;4.50;99.90;;;;;;5072365;28;20273;-49
2022/04/04 07:15:13;;;;;;;11.50;7.50;;;4.50;99.90;;;;;;5078289;28;20332;-42
2022/04/04 07:17:42;;;;;;;9.60;7.40;;;4.50;99.90;;;;;;5086047;28;20306;-46
2022/04/04 07:20:10;;;;;;;11.10;7.20;;;4.50;99.90;;;;;;5081225;28;20201;-44
2022/04/04 07:22:39;;;;;;;9.30;7.30;;;4.50;99.90;;;;;;5079400;28;20219;-44
2022/04/04 07:25:08;;;;;;;8.93;7.13;;;4.50;99.90;;;;;;5089059;28;20407;-45
2022/04/04 07:27:35;;;;;;;11.77;8.27;;;4.50;99.90;;;;;;5082214;28;20201;-45
2022/04/04 07:30:02;;;;;;;9.43;7.00;;;4.50;99.90;;;;;;5081505;28;20650;-45
2022/04/04 07:32:29;;;;;;;11.43;7.97;;;4.60;99.90;;;;;;5090779;28;20522;-45
2022/04/04 07:34:56;;;;;;;13.47;8.00;;;4.60;99.90;;;;;;5067851;28;20232;-45
2022/04/04 07:37:23;;;;;;;9.97;7.53;;;4.60;99.90;;;;;;5087799;28;20198;-44
2022/04/04 07:39:51;;;;;;;10.03;8.37;;;4.60;99.90;;;;;;5096179;28;20214;-45
2022/04/04 07:42:18;;;;;;;9.97;8.17;;;4.60;99.90;;;;;;5072487;28;20667;-45
2022/04/04 07:44:45;;;;;;;10.73;8.70;;;4.60;99.90;;;;;;5072970;28;20250;-46
2022/04/04 07:47:11;;;;;;;11.90;8.23;;;4.60;99.90;;;;;;5083029;28;20318;-44
2022/04/04 07:49:38;;;;;;;11.37;8.27;;;4.60;99.90;;;;;;5068462;28;20212;-46
2022/04/04 07:52:06;;;;;;;11.77;9.13;;;4.60;99.90;;;;;;5074431;28;20240;-45
2022/04/04 07:54:33;;;;;;;11.37;8.60;;;4.70;99.90;;;;;;5072585;28;20232;-46
2022/04/04 07:57:01;;;;;;;11.00;8.00;;;4.70;99.90;;;;;;5074363;28;20204;-44
2022/04/04 07:59:28;;;;;;;12.40;7.97;;;4.70;99.90;;;;;;5072899;28;20221;-44
2022/04/04 08:01:55;;;;;;;13.37;8.40;;;4.70;99.90;;;;;;5073006;28;20199;-44
2022/04/04 08:04:22;;;;;;;10.63;8.87;;;4.80;99.90;;;;;;5083242;28;20341;-44
2022/04/04 08:06:50;;;;;;;12.57;9.93;;;4.80;99.90;;;;;;5061499;28;20204;-44
2022/04/04 08:09:17;;;;;;;11.33;9.20;;;4.80;99.90;;;;;;5079958;28;20404;-44
2022/04/04 08:11:44;;;;;;;11.13;8.63;;;4.80;99.90;;;;;;5074460;28;20214;-45
2022/04/04 08:14:13;;;;;;;10.47;8.33;;;4.90;99.90;;;;;;5082088;28;20333;-44
2022/04/04 08:16:40;;;;;;;9.60;7.70;;;4.90;99.90;;;;;;5066582;27;20253;-45
2022/04/04 08:19:07;;;;;;;8.60;7.07;;;4.90;99.90;;;;;;5082190;27;20414;-44
2022/04/04 08:21:34;;;;;;;9.90;7.30;;;4.90;99.90;;;;;;5058056;27;20210;-45
2022/04/04 08:24:01;;;;;;;8.97;7.17;;;4.90;99.90;;;;;;5075946;28;20442;-44
2022/04/04 08:26:28;;;;;;;8.53;6.77;;;4.90;99.90;;;;;;5076326;27;20204;-45
2022/04/04 08:28:55;;;;;;;9.80;6.97;;;5.00;99.90;;;;;;5067798;27;20212;-44
2022/04/04 08:31:23;;;;;;;14.20;6.53;;;5.00;99.90;;;;;;5066029;27;20286;-44
2022/04/04 08:33:50;;;;;;;11.50;7.47;;;5.00;99.90;;;;;;5071336;28;20233;-44
2022/04/04 08:36:17;;;;;;;9.73;6.33;;;5.00;99.90;;;;;;5059991;28;20802;-43
2022/04/04 08:38:44;;;;;;;8.03;5.43;;;5.10;99.90;;;;;;5080271;27;20199;-44
2022/04/04 08:41:11;;;;;;;10.00;7.27;;;5.10;99.90;;;;;;5068688;28;20214;-44
2022/04/04 08:43:39;;;;;;;7.87;6.47;;;5.10;99.90;;;;;;5059658;27;20490;-44
2022/04/04 08:46:07;;;;;;;7.03;6.33;;;5.10;99.90;;;;;;5067024;28;20214;-45
2022/04/04 08:48:36;;;;;;;9.87;6.77;;;5.10;99.90;;;;;;5066115;27;20203;-44
2022/04/04 08:51:03;;;;;;;9.30;7.13;;;5.20;99.90;;;;;;5082867;28;20213;-44
2022/04/04 08:53:30;;;;;;;7.30;6.50;;;5.20;99.90;;;;;;5064558;28;20219;-43
2022/04/04 08:55:58;;;;;;;9.87;7.00;;;5.10;99.90;;;;;;5069076;28;20645;-43
2022/04/04 08:58:26;;;;;;;7.83;6.93;;;5.10;99.90;;;;;;5061914;27;20204;-45
2022/04/04 09:00:52;;;;;;;10.03;6.97;;;5.10;99.90;;;;;;5079584;28;20202;-44
2022/04/04 09:03:21;;;;;;;7.43;6.10;;;5.20;99.90;;;;;;5049324;27;20747;-45
2022/04/04 09:05:54;;;;;;;10.03;7.37;;;5.20;99.90;;;;;;5076332;27;20211;-44
2022/04/04 09:08:23;;;;;;;12.07;8.00;;;5.20;99.90;;;;;;5068898;28;20222;-44
2022/04/04 09:10:54;;;;;;;14.03;8.00;;;5.20;99.90;;;;;;5083575;27;20210;-45
2022/04/04 09:13:21;;;;;;;9.13;6.90;;;5.20;99.90;;;;;;5076456;27;20354;-44
2022/04/04 09:16:02;;;;;;;8.27;6.50;;;5.20;99.90;;;;;;5090603;28;20219;-45
2022/04/04 09:18:47;;;;;;;10.10;7.27;;;5.20;99.90;;;;;;5076639;28;21356;-44
2022/04/04 09:21:34;;;;;;;9.77;7.13;;;5.20;99.90;;;;;;5077723;27;20367;-45
2022/04/04 09:24:07;;;;;;;9.30;6.40;;;5.20;99.90;;;;;;5064127;28;20246;-44
2022/04/04 09:26:36;;;;;;;11.50;7.10;;;5.20;99.90;;;;;;5082065;27;20199;-43
2022/04/04 09:29:07;;;;;;;10.03;7.07;;;5.30;99.90;;;;;;5085337;28;20661;-43
2022/04/04 09:31:35;;;;;;;10.07;6.47;;;5.30;99.90;;;;;;5085626;27;20571;-45
2022/04/04 09:34:03;;;;;;;6.93;5.93;;;5.30;99.90;;;;;;5074841;27;20256;-43
2022/04/04 09:36:33;;;;;;;7.77;6.57;;;5.30;99.90;;;;;;5082735;27;20520;-45
2022/04/04 09:39:08;;;;;;;7.83;6.73;;;5.30;99.90;;;;;;5070409;27;20211;-45
2022/04/04 09:41:36;;;;;;;7.80;7.00;;;5.30;99.90;;;;;;5066431;27;20252;-45
2022/04/04 09:44:06;;;;;;;9.30;6.93;;;5.30;99.90;;;;;;5079205;28;20311;-45
2022/04/04 09:46:35;;;;;;;8.83;7.60;;;5.30;99.90;;;;;;5089009;28;20207;-45
2022/04/04 09:49:11;;;;;;;11.23;7.63;;;5.30;99.90;;;;;;5078974;28;20207;-46
2022/04/04 09:51:41;;;;;;;8.13;6.50;;;5.30;99.90;;;;;;5076686;27;20296;-45
2022/04/04 09:54:10;;;;;;;9.63;6.50;;;5.30;99.90;;;;;;5066160;28;20326;-46
2022/04/04 09:56:37;;;;;;;8.00;6.73;;;5.40;99.90;;;;;;5088543;27;20265;-45
2022/04/04 09:59:04;;;;;;;8.00;7.20;;;5.40;99.90;;;;;;5072518;27;20229;-45
2022/04/04 10:01:33;;;;;;;8.43;6.83;;;5.40;99.90;;;;;;5090054;27;20204;-44
2022/04/04 10:04:01;;;;;;;13.50;7.03;;;5.30;99.90;;;;;;5086784;27;20262;-43
2022/04/04 10:06:30;;;;;;;7.63;6.77;;;5.40;99.90;;;;;;5067695;27;20424;-44
2022/04/04 10:08:59;;;;;;;14.00;7.40;;;5.30;99.90;;;;;;5087618;28;20199;-43
2022/04/04 10:11:27;;;;;;;8.10;6.73;;;5.40;99.90;;;;;;5069090;28;20370;-45
2022/04/04 10:13:55;;;;;;;11.20;7.30;;;5.40;99.90;;;;;;5080307;28;20237;-44
2022/04/04 10:16:23;;;;;;;9.87;6.87;;;5.40;99.90;;;;;;5076471;27;21714;-44
2022/04/04 10:18:54;;;;;;;9.10;6.53;;;5.40;99.90;;;;;;5083834;28;20210;-44
2022/04/04 10:21:20;;;;;;;8.83;7.00;;;5.40;99.90;;;;;;5072255;27;20307;-44
2022/04/04 10:23:51;;;;;;;9.17;6.97;;;5.40;99.90;;;;;;5087387;28;20723;-44
2022/04/04 10:26:21;;;;;;;9.43;6.87;;;5.50;99.90;;;;;;5060359;28;20327;-44
2022/04/04 10:28:49;;;;;;;9.30;6.80;;;5.50;99.90;;;;;;5067611;28;20207;-43
2022/04/04 10:31:18;;;;;;;8.20;6.40;;;5.50;99.90;;;;;;5078603;28;20219;-44
2022/04/04 10:33:49;;;;;;;7.33;6.50;;;5.60;99.90;;;;;;5077841;28;20231;-45
2022/04/04 10:36:23;;;;;;;8.30;6.33;;;5.60;99.90;;;;;;5073193;27;20223;-44
2022/04/04 10:38:52;;;;;;;7.57;6.73;;;5.60;99.90;;;;;;5083691;27;20204;-44
2022/04/04 10:41:22;;;;;;;7.27;6.40;;;5.60;99.90;;;;;;5064071;27;20582;-45
2022/04/04 10:43:51;;;;;;;7.37;6.50;;;5.70;99.90;;;;;;5079851;28;20267;-44
2022/04/04 10:46:19;;;;;;;8.53;5.97;;;5.70;99.90;;;;;;5068482;28;20196;-46
2022/04/04 10:48:50;;;;;;;10.20;6.40;;;5.70;99.90;;;;;;5059788;28;20215;-44
2022/04/04 10:51:18;;;;;;;7.83;6.33;;;5.70;99.90;;;;;;5062612;28;20210;-44
2022/04/04 10:53:49;;;;;;;6.60;5.70;;;5.80;99.90;;;;;;5042269;28;20237;-49
2022/04/04 10:56:22;;;;;;;6.37;5.57;;;5.90;99.90;;;;;;5062812;28;20223;-46
2022/04/04 10:58:51;;;;;;;7.17;5.30;;;5.90;99.90;;;;;;5046736;28;20919;-45
2022/04/04 11:01:21;;;;;;;7.73;5.27;;;5.90;99.90;;;;;;5053499;28;20219;-45
2022/04/04 11:03:59;;;;;;;7.07;4.60;;;5.90;99.90;;;;;;5057042;28;20609;-45
2022/04/04 11:09:26;;;;;;;5.17;4.67;;;6.00;99.90;;;;;;5047092;28;20255;-46
2022/04/04 11:12:11;;;;;;;5.23;4.63;;;6.00;99.90;;;;;;5049832;28;20336;-46
2022/04/04 11:15:04;;;;;;;4.90;4.50;;;6.00;99.90;;;;;;5062681;28;20402;-44
2022/04/04 11:17:33;;;;;;;5.07;4.57;;;6.00;99.90;;;;;;5069211;28;20499;-44
2022/04/04 11:20:04;;;;;;;5.30;4.80;;;6.00;99.90;;;;;;5078722;28;20207;-44
2022/04/04 11:22:34;;;;;;;4.67;4.27;;;6.00;99.90;;;;;;5068124;28;20199;-44
2022/04/04 11:25:08;;;;;;;14.23;4.60;;;6.10;99.90;;;;;;5071293;28;20231;-44
2022/04/04 11:27:39;;;;;;;5.53;4.30;;;6.00;99.90;;;;;;5058224;28;20212;-44
2022/04/04 11:30:07;;;;;;;4.53;4.03;;;6.10;99.90;;;;;;5061381;28;20206;-45
2022/04/04 11:32:40;;;;;;;4.87;4.17;;;6.10;99.90;;;;;;5084986;28;20298;-46
2022/04/04 11:35:10;;;;;;;4.07;3.67;;;6.20;99.90;;;;;;5064061;28;20261;-43
2022/04/04 11:37:42;;;;;;;4.10;3.63;;;5.90;99.90;;;;;;5078221;28;20221;-44
2022/04/04 11:40:13;;;;;;;4.10;3.47;;;6.20;99.90;;;;;;5065120;28;20328;-45
2022/04/04 11:42:44;;;;;;;5.23;4.00;;;6.20;99.90;;;;;;5072790;28;20286;-44
2022/04/04 11:45:16;;;;;;;5.53;4.43;;;6.30;99.90;;;;;;5068114;28;20304;-45
2022/04/04 11:47:50;;;;;;;4.07;3.67;;;6.30;99.90;;;;;;5074321;28;20214;-45
2022/04/04 11:50:17;;;;;;;5.40;3.70;;;6.40;99.90;;;;;;5071672;27;20208;-46
2022/04/04 11:52:49;;;;;;;3.70;3.37;;;6.40;99.90;;;;;;5087279;27;20227;-46
2022/04/04 11:55:17;;;;;;;5.33;3.57;;;6.40;99.90;;;;;;5072791;27;20234;-44
2022/04/04 11:57:49;;;;;;;3.70;3.30;;;6.40;99.90;;;;;;5073715;28;20234;-44
2022/04/04 12:00:21;;;;;;;3.07;2.70;;;6.40;99.90;;;;;;5077586;28;20807;-43
2022/04/04 12:02:48;;;;;;;4.93;2.83;;;6.50;99.90;;;;;;5069722;27;20203;-45
2022/04/04 12:05:17;;;;;;;3.70;2.73;;;6.50;99.90;;;;;;5059164;27;20315;-44
2022/04/04 12:07:44;;;;;;;2.73;2.53;;;6.50;99.90;;;;;;5069118;27;20339;-44
2022/04/04 12:10:16;;;;;;;4.30;2.83;;;6.50;99.90;;;;;;5083538;27;20284;-43
2022/04/04 12:12:45;;;;;;;4.50;3.10;;;6.50;99.90;;;;;;5068765;27;20414;-45
2022/04/04 12:15:12;;;;;;;3.03;2.73;;;6.60;99.90;;;;;;5070422;27;20298;-43
2022/04/04 12:17:39;;;;;;;3.30;3.00;;;6.60;99.90;;;;;;5091681;27;20333;-46
2022/04/04 12:20:11;;;;;;;4.40;3.50;;;6.60;99.90;;;;;;5073469;27;20612;-46
2022/04/04 12:25:23;;;;;;;8.00;3.20;;;6.60;99.90;;;;;;5071003;27;20229;-45
2022/04/04 12:27:59;;;;;;;3.10;2.80;;;6.60;99.90;;;;;;5073195;27;20387;-45
2022/04/04 12:30:31;;;;;;;3.50;2.20;;;6.60;99.90;;;;;;5061777;27;20584;-45
2022/04/04 12:33:08;;;;;;;2.77;2.57;;;6.60;99.90;;;;;;5093249;27;20409;-45
2022/04/04 12:35:41;;;;;;;2.93;2.63;;;6.70;99.90;;;;;;5091036;27;23146;-45
2022/04/04 12:38:08;;;;;;;3.53;2.73;;;6.70;99.90;;;;;;5079631;27;20922;-43
2022/04/04 12:40:37;;;;;;;3.27;2.57;;;6.80;99.90;;;;;;5074756;27;20529;-44
2022/04/04 12:43:08;;;;;;;3.00;2.30;;;6.80;99.90;;;;;;5095998;27;20204;-46
2022/04/04 12:45:45;;;;;;;2.70;2.50;;;6.80;99.90;;;;;;5078080;27;20271;-43
2022/04/04 12:48:13;;;;;;;2.43;2.23;;;6.80;99.90;;;;;;5086019;27;20426;-45
2022/04/04 12:50:41;;;;;;;3.00;2.30;;;6.80;99.90;;;;;;5082640;27;20279;-46
2022/04/04 12:53:10;;;;;;;3.00;2.40;;;6.90;99.90;;;;;;5083645;27;20210;-45
2022/04/04 12:55:38;;;;;;;2.97;2.53;;;6.90;99.90;;;;;;5077374;27;20314;-45
2022/04/04 12:58:23;;;;;;;2.37;2.17;;;6.90;99.90;;;;;;5085435;27;20526;-44
2022/04/04 13:00:50;;;;;;;2.70;2.50;;;6.90;99.90;;;;;;5064185;27;20207;-44
2022/04/04 13:03:19;;;;;;;2.57;2.37;;;6.90;99.90;;;;;;5045089;27;20219;-48
2022/04/04 13:05:48;;;;;;;3.27;2.00;;;6.90;99.90;;;;;;5071481;27;20368;-47
2022/04/04 13:08:18;;;;;;;5.43;2.10;;;6.90;99.90;;;;;;5059851;27;20205;-49
2022/04/04 13:11:02;;;;;;;2.40;2.20;;;7.00;99.90;;;;;;5066147;27;20215;-48